sensor_id;sensor_type;location;lat;lon;timestamp;temperature;humidity
26803;DHT22;14378;51.796;5.808;2022-10-15T00:03:08;12.10;99.90
26803;DHT22;14378;51.796;5.808;2022-10-15T00:05:08;12.00;99.90
26803;DHT22;14378;51.796;5.808;2022-10-15T00:07:09;12.00;99.90
26803;DHT22;14378;51.796;5.808;2022-10-15T00:09:10;12.00;99.90
26803;DHT22;14378;51.796;5.808;2022-10-15T00:11:14;11.90;99.90
26803;DHT22;14378;51.796;5.808;2022-10-15T00:13:15;11.90;99.90
26803;DHT22;14378;51.796;5.808;2022-10-15T00:15:16;11.90;99.90
26803;DHT22;14378;51.796;5.808;2022-10-15T00:17:17;11.90;99.90
26803;DHT22;14378;51.796;5.808;2022-10-15T00:19:18;11.90;99.90
26803;DHT22;14378;51.796;5.808;2022-10-15T00:21:19;11.90;99.90
26803;DHT22;14378;51.796;5.808;2022-10-15T00:23:30;11.80;99.90
26803;DHT22;14378;51.796;5.808;2022-10-15T00:25:31;11.80;99.90
26803;DHT22;14378;51.796;5.808;2022-10-15T00:27:33;11.80;99.90
26803;DHT22;14378;51.796;5.808;2022-10-15T00:29:34;11.80;99.90
26803;DHT22;14378;51.796;5.808;2022-10-15T00:31:35;11.80;99.90
26803;DHT22;14378;51.796;5.808;2022-10-15T00:33:37;11.80;99.90
26803;DHT22;14378;51.796;5.808;2022-10-15T00:35:38;11.70;99.90
26803;DHT22;14378;51.796;5.808;2022-10-15T00:37:39;11.70;99.90
26803;DHT22;14378;51.796;5.808;2022-10-15T00:39:40;11.70;99.90
26803;DHT22;14378;51.796;5.808;2022-10-15T00:41:42;11.70;99.90
26803;DHT22;14378;51.796;5.808;2022-10-15T00:43:55;11.70;99.90
26803;DHT22;14378;51.796;5.808;2022-10-15T00:45:56;11.60;99.90
26803;DHT22;14378;51.796;5.808;2022-10-15T00:47:58;11.60;99.90
26803;DHT22;14378;51.796;5.808;2022-10-15T00:50:06;11.60;99.90
26803;DHT22;14378;51.796;5.808;2022-10-15T00:52:12;11.60;99.90
26803;DHT22;14378;51.796;5.808;2022-10-15T00:54:14;11.60;99.90
26803;DHT22;14378;51.796;5.808;2022-10-15T00:56:17;11.60;99.90
26803;DHT22;14378;51.796;5.808;2022-10-15T00:58:22;11.60;99.90
26803;DHT22;14378;51.796;5.808;2022-10-15T01:00:29;11.60;99.90
26803;DHT22;14378;51.796;5.808;2022-10-15T01:02:30;11.60;99.90
26803;DHT22;14378;51.796;5.808;2022-10-15T01:04:31;11.60;99.90
26803;DHT22;14378;51.796;5.808;2022-10-15T01:06:33;11.60;99.90
26803;DHT22;14378;51.796;5.808;2022-10-15T01:08:36;11.60;99.90
26803;DHT22;14378;51.796;5.808;2022-10-15T01:15:11;11.60;99.90
26803;DHT22;14378;51.796;5.808;2022-10-15T01:22:08;11.70;99.90
26803;DHT22;14378;51.796;5.808;2022-10-15T01:27:13;11.70;99.90
26803;DHT22;14378;51.796;5.808;2022-10-15T01:39:20;11.80;99.90
26803;DHT22;14378;51.796;5.808;2022-10-15T01:42:10;11.90;99.90
26803;DHT22;14378;51.796;5.808;2022-10-15T01:44:36;12.00;99.90
26803;DHT22;14378;51.796;5.808;2022-10-15T01:47:03;12.00;99.90
26803;DHT22;14378;51.796;5.808;2022-10-15T01:49:05;12.00;99.90
26803;DHT22;14378;51.796;5.808;2022-10-15T01:51:10;12.00;99.90
26803;DHT22;14378;51.796;5.808;2022-10-15T01:53:15;12.00;99.90
26803;DHT22;14378;51.796;5.808;2022-10-15T01:55:19;12.10;99.90
26803;DHT22;14378;51.796;5.808;2022-10-15T01:57:23;12.00;99.90
26803;DHT22;14378;51.796;5.808;2022-10-15T01:59:32;12.00;99.90
26803;DHT22;14378;51.796;5.808;2022-10-15T02:01:33;12.00;99.90
26803;DHT22;14378;51.796;5.808;2022-10-15T02:03:48;12.10;99.90
26803;DHT22;14378;51.796;5.808;2022-10-15T02:05:58;12.10;99.90
26803;DHT22;14378;51.796;5.808;2022-10-15T02:08:30;12.10;99.90
26803;DHT22;14378;51.796;5.808;2022-10-15T02:13:31;12.10;99.90
26803;DHT22;14378;51.796;5.808;2022-10-15T02:20:13;12.20;99.90
26803;DHT22;14378;51.796;5.808;2022-10-15T02:22:25;12.30;99.90
26803;DHT22;14378;51.796;5.808;2022-10-15T02:24:31;12.30;99.90
26803;DHT22;14378;51.796;5.808;2022-10-15T02:26:39;12.40;99.90
26803;DHT22;14378;51.796;5.808;2022-10-15T02:28:44;12.40;99.90
26803;DHT22;14378;51.796;5.808;2022-10-15T02:30:48;12.40;99.90
26803;DHT22;14378;51.796;5.808;2022-10-15T02:32:55;12.40;99.90
26803;DHT22;14378;51.796;5.808;2022-10-15T02:34:59;12.50;99.90
26803;DHT22;14378;51.796;5.808;2022-10-15T02:37:01;12.50;99.90
26803;DHT22;14378;51.796;5.808;2022-10-15T02:39:11;12.50;99.90
26803;DHT22;14378;51.796;5.808;2022-10-15T02:41:15;12.60;99.90
26803;DHT22;14378;51.796;5.808;2022-10-15T02:43:19;12.60;99.90
26803;DHT22;14378;51.796;5.808;2022-10-15T02:45:25;12.70;99.90
26803;DHT22;14378;51.796;5.808;2022-10-15T02:47:25;12.70;99.90
26803;DHT22;14378;51.796;5.808;2022-10-15T02:49:27;12.70;99.90
26803;DHT22;14378;51.796;5.808;2022-10-15T02:51:33;12.70;99.90
26803;DHT22;14378;51.796;5.808;2022-10-15T02:53:34;12.70;99.90
26803;DHT22;14378;51.796;5.808;2022-10-15T02:55:37;12.70;99.90
26803;DHT22;14378;51.796;5.808;2022-10-15T02:57:38;12.70;99.90
26803;DHT22;14378;51.796;5.808;2022-10-15T02:59:40;12.80;99.90
26803;DHT22;14378;51.796;5.808;2022-10-15T03:01:43;12.80;99.90
26803;DHT22;14378;51.796;5.808;2022-10-15T03:03:44;12.80;99.90
26803;DHT22;14378;51.796;5.808;2022-10-15T03:05:47;12.80;99.90
26803;DHT22;14378;51.796;5.808;2022-10-15T03:07:49;12.80;99.90
26803;DHT22;14378;51.796;5.808;2022-10-15T03:09:49;12.90;99.90
26803;DHT22;14378;51.796;5.808;2022-10-15T03:11:54;12.90;99.90
26803;DHT22;14378;51.796;5.808;2022-10-15T03:13:55;12.90;99.90
26803;DHT22;14378;51.796;5.808;2022-10-15T03:15:56;12.90;99.90
26803;DHT22;14378;51.796;5.808;2022-10-15T03:17:57;12.90;99.90
26803;DHT22;14378;51.796;5.808;2022-10-15T03:19:58;12.90;99.90
26803;DHT22;14378;51.796;5.808;2022-10-15T03:22:00;12.90;99.90
26803;DHT22;14378;51.796;5.808;2022-10-15T03:24:10;12.90;99.90
26803;DHT22;14378;51.796;5.808;2022-10-15T03:26:11;12.90;99.90
26803;DHT22;14378;51.796;5.808;2022-10-15T03:28:12;12.90;99.90
26803;DHT22;14378;51.796;5.808;2022-10-15T03:30:15;12.90;99.90
26803;DHT22;14378;51.796;5.808;2022-10-15T03:32:17;12.90;99.90
26803;DHT22;14378;51.796;5.808;2022-10-15T03:34:18;12.90;99.90
26803;DHT22;14378;51.796;5.808;2022-10-15T03:36:20;12.90;99.90
26803;DHT22;14378;51.796;5.808;2022-10-15T03:38:24;12.80;99.90
26803;DHT22;14378;51.796;5.808;2022-10-15T03:40:26;12.80;99.90
26803;DHT22;14378;51.796;5.808;2022-10-15T03:42:31;12.80;99.90
26803;DHT22;14378;51.796;5.808;2022-10-15T03:44:34;12.80;99.90
26803;DHT22;14378;51.796;5.808;2022-10-15T03:46:47;12.90;99.90
26803;DHT22;14378;51.796;5.808;2022-10-15T03:48:52;12.80;99.90
26803;DHT22;14378;51.796;5.808;2022-10-15T03:50:54;12.80;99.90
26803;DHT22;14378;51.796;5.808;2022-10-15T03:52:55;12.90;99.90
26803;DHT22;14378;51.796;5.808;2022-10-15T03:54:56;12.80;99.90
26803;DHT22;14378;51.796;5.808;2022-10-15T03:56:59;12.90;99.90
26803;DHT22;14378;51.796;5.808;2022-10-15T03:59:06;12.90;99.90
26803;DHT22;14378;51.796;5.808;2022-10-15T04:01:08;12.90;99.90
26803;DHT22;14378;51.796;5.808;2022-10-15T04:03:09;12.90;99.90
26803;DHT22;14378;51.796;5.808;2022-10-15T04:05:10;12.90;99.90
26803;DHT22;14378;51.796;5.808;2022-10-15T04:07:16;12.90;99.90
26803;DHT22;14378;51.796;5.808;2022-10-15T04:09:16;12.90;99.90
26803;DHT22;14378;51.796;5.808;2022-10-15T04:11:18;12.90;99.90
26803;DHT22;14378;51.796;5.808;2022-10-15T04:13:22;12.90;99.90
26803;DHT22;14378;51.796;5.808;2022-10-15T04:15:23;12.90;99.90
26803;DHT22;14378;51.796;5.808;2022-10-15T04:17:30;12.90;99.90
26803;DHT22;14378;51.796;5.808;2022-10-15T04:19:31;12.90;99.90
26803;DHT22;14378;51.796;5.808;2022-10-15T04:21:37;12.90;99.90
26803;DHT22;14378;51.796;5.808;2022-10-15T04:23:39;12.90;99.90
26803;DHT22;14378;51.796;5.808;2022-10-15T04:25:59;12.90;99.90
26803;DHT22;14378;51.796;5.808;2022-10-15T04:28:01;12.90;99.90
26803;DHT22;14378;51.796;5.808;2022-10-15T04:30:02;12.80;99.90
26803;DHT22;14378;51.796;5.808;2022-10-15T04:32:03;12.80;99.90
26803;DHT22;14378;51.796;5.808;2022-10-15T04:34:05;12.80;99.90
26803;DHT22;14378;51.796;5.808;2022-10-15T04:36:12;12.80;99.90
26803;DHT22;14378;51.796;5.808;2022-10-15T04:38:22;12.80;99.90
26803;DHT22;14378;51.796;5.808;2022-10-15T04:40:35;12.80;99.90
26803;DHT22;14378;51.796;5.808;2022-10-15T04:42:36;12.90;99.90
26803;DHT22;14378;51.796;5.808;2022-10-15T04:44:40;12.90;99.90
26803;DHT22;14378;51.796;5.808;2022-10-15T04:46:41;12.90;99.90
26803;DHT22;14378;51.796;5.808;2022-10-15T04:49:01;12.90;99.90
26803;DHT22;14378;51.796;5.808;2022-10-15T04:51:11;12.90;99.90
26803;DHT22;14378;51.796;5.808;2022-10-15T04:53:31;12.90;99.90
26803;DHT22;14378;51.796;5.808;2022-10-15T04:55:32;13.00;99.90
26803;DHT22;14378;51.796;5.808;2022-10-15T04:57:34;13.00;99.90
26803;DHT22;14378;51.796;5.808;2022-10-15T04:59:36;13.00;99.90
26803;DHT22;14378;51.796;5.808;2022-10-15T05:01:58;13.00;99.90
26803;DHT22;14378;51.796;5.808;2022-10-15T05:04:00;13.00;99.90
26803;DHT22;14378;51.796;5.808;2022-10-15T05:06:05;13.00;99.90
26803;DHT22;14378;51.796;5.808;2022-10-15T05:08:06;13.10;99.90
26803;DHT22;14378;51.796;5.808;2022-10-15T05:10:26;13.10;99.90
26803;DHT22;14378;51.796;5.808;2022-10-15T05:12:27;13.10;99.90
26803;DHT22;14378;51.796;5.808;2022-10-15T05:14:28;13.10;99.90
26803;DHT22;14378;51.796;5.808;2022-10-15T05:16:43;13.10;99.90
26803;DHT22;14378;51.796;5.808;2022-10-15T05:18:48;13.10;99.90
26803;DHT22;14378;51.796;5.808;2022-10-15T05:20:50;13.10;99.90
26803;DHT22;14378;51.796;5.808;2022-10-15T05:22:54;13.10;99.90
26803;DHT22;14378;51.796;5.808;2022-10-15T05:24:55;13.10;99.90
26803;DHT22;14378;51.796;5.808;2022-10-15T05:27:08;13.20;99.90
26803;DHT22;14378;51.796;5.808;2022-10-15T05:29:10;13.20;99.90
26803;DHT22;14378;51.796;5.808;2022-10-15T05:31:14;13.20;99.90
26803;DHT22;14378;51.796;5.808;2022-10-15T05:33:18;13.20;99.90
26803;DHT22;14378;51.796;5.808;2022-10-15T05:35:20;13.20;99.90
26803;DHT22;14378;51.796;5.808;2022-10-15T05:37:29;13.30;99.90
26803;DHT22;14378;51.796;5.808;2022-10-15T05:39:30;13.30;99.90
26803;DHT22;14378;51.796;5.808;2022-10-15T05:41:31;13.30;99.90
26803;DHT22;14378;51.796;5.808;2022-10-15T05:43:32;13.30;99.90
26803;DHT22;14378;51.796;5.808;2022-10-15T05:45:35;13.30;99.90
26803;DHT22;14378;51.796;5.808;2022-10-15T05:47:39;13.40;99.90
26803;DHT22;14378;51.796;5.808;2022-10-15T05:49:50;13.40;99.90
26803;DHT22;14378;51.796;5.808;2022-10-15T05:51:57;13.40;99.90
26803;DHT22;14378;51.796;5.808;2022-10-15T05:54:17;13.40;99.90
26803;DHT22;14378;51.796;5.808;2022-10-15T05:56:18;13.40;99.90
26803;DHT22;14378;51.796;5.808;2022-10-15T05:58:19;13.50;99.90
26803;DHT22;14378;51.796;5.808;2022-10-15T06:00:20;13.50;99.90
26803;DHT22;14378;51.796;5.808;2022-10-15T06:02:26;13.50;99.90
26803;DHT22;14378;51.796;5.808;2022-10-15T06:04:27;13.60;99.90
26803;DHT22;14378;51.796;5.808;2022-10-15T06:06:28;13.60;99.90
26803;DHT22;14378;51.796;5.808;2022-10-15T06:08:29;13.60;99.90
26803;DHT22;14378;51.796;5.808;2022-10-15T06:10:34;13.60;99.90
26803;DHT22;14378;51.796;5.808;2022-10-15T06:12:38;13.70;99.90
26803;DHT22;14378;51.796;5.808;2022-10-15T06:14:39;13.70;99.90
26803;DHT22;14378;51.796;5.808;2022-10-15T06:16:41;13.70;99.90
26803;DHT22;14378;51.796;5.808;2022-10-15T06:18:42;13.70;99.90
26803;DHT22;14378;51.796;5.808;2022-10-15T06:20:43;13.80;99.90
26803;DHT22;14378;51.796;5.808;2022-10-15T06:22:44;13.80;99.90
26803;DHT22;14378;51.796;5.808;2022-10-15T06:24:45;13.80;99.90
26803;DHT22;14378;51.796;5.808;2022-10-15T06:26:46;13.80;99.90
26803;DHT22;14378;51.796;5.808;2022-10-15T06:28:47;13.80;99.90
26803;DHT22;14378;51.796;5.808;2022-10-15T06:30:47;13.90;99.90
26803;DHT22;14378;51.796;5.808;2022-10-15T06:32:58;13.90;99.90
26803;DHT22;14378;51.796;5.808;2022-10-15T06:34:59;13.90;99.90
26803;DHT22;14378;51.796;5.808;2022-10-15T06:37:00;13.90;99.90
26803;DHT22;14378;51.796;5.808;2022-10-15T06:39:01;13.90;99.90
26803;DHT22;14378;51.796;5.808;2022-10-15T06:41:06;14.00;99.90
26803;DHT22;14378;51.796;5.808;2022-10-15T06:43:09;14.00;99.90
26803;DHT22;14378;51.796;5.808;2022-10-15T06:45:11;14.00;99.90
26803;DHT22;14378;51.796;5.808;2022-10-15T06:47:12;14.10;99.90
26803;DHT22;14378;51.796;5.808;2022-10-15T06:49:14;14.10;99.90
26803;DHT22;14378;51.796;5.808;2022-10-15T06:51:16;14.10;99.90
26803;DHT22;14378;51.796;5.808;2022-10-15T06:53:23;14.20;99.90
26803;DHT22;14378;51.796;5.808;2022-10-15T06:55:24;14.20;99.90
26803;DHT22;14378;51.796;5.808;2022-10-15T06:57:26;14.20;99.90
26803;DHT22;14378;51.796;5.808;2022-10-15T06:59:28;14.20;99.90
26803;DHT22;14378;51.796;5.808;2022-10-15T07:01:31;14.20;99.90
26803;DHT22;14378;51.796;5.808;2022-10-15T07:03:32;14.20;99.90
26803;DHT22;14378;51.796;5.808;2022-10-15T07:05:34;14.20;99.90
26803;DHT22;14378;51.796;5.808;2022-10-15T07:07:35;14.20;99.90
26803;DHT22;14378;51.796;5.808;2022-10-15T07:09:36;14.30;99.90
26803;DHT22;14378;51.796;5.808;2022-10-15T07:11:37;14.30;99.90
26803;DHT22;14378;51.796;5.808;2022-10-15T07:13:38;14.30;99.90
26803;DHT22;14378;51.796;5.808;2022-10-15T07:15:41;14.30;99.90
26803;DHT22;14378;51.796;5.808;2022-10-15T07:17:51;14.30;99.90
26803;DHT22;14378;51.796;5.808;2022-10-15T07:19:53;14.30;99.90
26803;DHT22;14378;51.796;5.808;2022-10-15T07:21:53;14.30;99.90
26803;DHT22;14378;51.796;5.808;2022-10-15T07:23:54;14.30;99.90
26803;DHT22;14378;51.796;5.808;2022-10-15T07:25:59;14.30;99.90
26803;DHT22;14378;51.796;5.808;2022-10-15T07:28:00;14.40;99.90
26803;DHT22;14378;51.796;5.808;2022-10-15T07:30:02;14.40;99.90
26803;DHT22;14378;51.796;5.808;2022-10-15T07:32:03;14.40;99.90
26803;DHT22;14378;51.796;5.808;2022-10-15T07:34:07;14.30;99.90
26803;DHT22;14378;51.796;5.808;2022-10-15T07:36:09;14.30;99.90
26803;DHT22;14378;51.796;5.808;2022-10-15T07:38:12;14.30;99.90
26803;DHT22;14378;51.796;5.808;2022-10-15T07:40:13;14.40;99.90
26803;DHT22;14378;51.796;5.808;2022-10-15T07:42:15;14.40;99.90
26803;DHT22;14378;51.796;5.808;2022-10-15T07:44:16;14.50;99.90
26803;DHT22;14378;51.796;5.808;2022-10-15T07:46:17;14.60;99.90
26803;DHT22;14378;51.796;5.808;2022-10-15T07:48:22;14.60;99.90
26803;DHT22;14378;51.796;5.808;2022-10-15T07:50:23;14.70;99.90
26803;DHT22;14378;51.796;5.808;2022-10-15T07:52:30;14.70;99.90
26803;DHT22;14378;51.796;5.808;2022-10-15T07:54:34;14.80;99.90
26803;DHT22;14378;51.796;5.808;2022-10-15T07:56:35;14.80;99.90
26803;DHT22;14378;51.796;5.808;2022-10-15T07:58:37;14.90;99.90
26803;DHT22;14378;51.796;5.808;2022-10-15T08:00:39;14.90;99.90
26803;DHT22;14378;51.796;5.808;2022-10-15T08:02:40;14.90;99.90
26803;DHT22;14378;51.796;5.808;2022-10-15T08:04:42;14.90;99.90
26803;DHT22;14378;51.796;5.808;2022-10-15T08:06:43;15.00;99.90
26803;DHT22;14378;51.796;5.808;2022-10-15T08:08:49;15.00;99.90
26803;DHT22;14378;51.796;5.808;2022-10-15T08:10:50;15.00;99.90
26803;DHT22;14378;51.796;5.808;2022-10-15T08:13:10;15.00;99.90
26803;DHT22;14378;51.796;5.808;2022-10-15T08:15:27;15.10;99.90
26803;DHT22;14378;51.796;5.808;2022-10-15T08:17:28;15.10;99.90
26803;DHT22;14378;51.796;5.808;2022-10-15T08:19:29;15.20;99.90
26803;DHT22;14378;51.796;5.808;2022-10-15T08:21:30;15.20;99.90
26803;DHT22;14378;51.796;5.808;2022-10-15T08:23:31;15.30;99.90
26803;DHT22;14378;51.796;5.808;2022-10-15T08:25:32;15.30;99.90
26803;DHT22;14378;51.796;5.808;2022-10-15T08:27:33;15.30;99.90
26803;DHT22;14378;51.796;5.808;2022-10-15T08:29:41;15.40;99.90
26803;DHT22;14378;51.796;5.808;2022-10-15T08:31:45;15.40;99.90
26803;DHT22;14378;51.796;5.808;2022-10-15T08:33:46;15.50;99.90
26803;DHT22;14378;51.796;5.808;2022-10-15T08:35:47;15.50;99.90
26803;DHT22;14378;51.796;5.808;2022-10-15T08:40:18;15.60;99.90
26803;DHT22;14378;51.796;5.808;2022-10-15T08:42:56;15.60;99.90
26803;DHT22;14378;51.796;5.808;2022-10-15T08:45:02;15.70;99.90
26803;DHT22;14378;51.796;5.808;2022-10-15T08:47:20;15.80;99.90
26803;DHT22;14378;51.796;5.808;2022-10-15T08:49:40;15.80;99.90
26803;DHT22;14378;51.796;5.808;2022-10-15T08:51:48;15.90;99.90
26803;DHT22;14378;51.796;5.808;2022-10-15T08:53:56;16.00;99.90
26803;DHT22;14378;51.796;5.808;2022-10-15T08:56:03;16.10;99.90
26803;DHT22;14378;51.796;5.808;2022-10-15T09:00:31;16.20;99.90
26803;DHT22;14378;51.796;5.808;2022-10-15T09:02:59;16.20;99.90
26803;DHT22;14378;51.796;5.808;2022-10-15T09:05:12;16.20;99.90
26803;DHT22;14378;51.796;5.808;2022-10-15T09:07:38;16.30;99.90
26803;DHT22;14378;51.796;5.808;2022-10-15T09:09:48;16.20;99.90
26803;DHT22;14378;51.796;5.808;2022-10-15T09:14:39;16.40;99.90
26803;DHT22;14378;51.796;5.808;2022-10-15T09:16:48;16.50;99.90
26803;DHT22;14378;51.796;5.808;2022-10-15T09:18:50;16.50;99.90
26803;DHT22;14378;51.796;5.808;2022-10-15T09:20:53;16.60;99.90
26803;DHT22;14378;51.796;5.808;2022-10-15T09:22:57;16.60;99.90
26803;DHT22;14378;51.796;5.808;2022-10-15T09:24:58;16.60;99.90
26803;DHT22;14378;51.796;5.808;2022-10-15T09:29:47;16.60;99.90
26803;DHT22;14378;51.796;5.808;2022-10-15T09:38:46;16.60;99.90
26803;DHT22;14378;51.796;5.808;2022-10-15T09:43:41;16.60;99.90
26803;DHT22;14378;51.796;5.808;2022-10-15T09:45:40;16.70;99.90
26803;DHT22;14378;51.796;5.808;2022-10-15T09:47:42;16.70;99.90
26803;DHT22;14378;51.796;5.808;2022-10-15T09:49:43;16.80;99.90
26803;DHT22;14378;51.796;5.808;2022-10-15T09:56:12;16.90;99.90
26803;DHT22;14378;51.796;5.808;2022-10-15T09:58:27;16.90;99.90
26803;DHT22;14378;51.796;5.808;2022-10-15T10:03:17;16.90;99.90
26803;DHT22;14378;51.796;5.808;2022-10-15T10:05:30;16.90;99.90
26803;DHT22;14378;51.796;5.808;2022-10-15T10:07:33;16.90;99.90
26803;DHT22;14378;51.796;5.808;2022-10-15T10:09:52;16.90;99.90
26803;DHT22;14378;51.796;5.808;2022-10-15T10:11:56;16.90;99.90
26803;DHT22;14378;51.796;5.808;2022-10-15T10:13:58;16.80;99.90
26803;DHT22;14378;51.796;5.808;2022-10-15T10:16:10;16.80;99.90
26803;DHT22;14378;51.796;5.808;2022-10-15T10:18:20;16.80;99.90
26803;DHT22;14378;51.796;5.808;2022-10-15T10:20:26;16.80;99.90
26803;DHT22;14378;51.796;5.808;2022-10-15T10:22:27;16.80;99.90
26803;DHT22;14378;51.796;5.808;2022-10-15T10:24:29;16.80;99.90
26803;DHT22;14378;51.796;5.808;2022-10-15T10:26:34;16.80;99.90
26803;DHT22;14378;51.796;5.808;2022-10-15T10:30:58;16.70;99.90
26803;DHT22;14378;51.796;5.808;2022-10-15T10:33:04;16.70;99.90
26803;DHT22;14378;51.796;5.808;2022-10-15T10:35:19;16.70;99.90
26803;DHT22;14378;51.796;5.808;2022-10-15T10:37:22;16.70;99.90
26803;DHT22;14378;51.796;5.808;2022-10-15T10:39:28;16.60;99.90
26803;DHT22;14378;51.796;5.808;2022-10-15T10:41:53;16.60;99.90
26803;DHT22;14378;51.796;5.808;2022-10-15T10:43:55;16.70;99.90
26803;DHT22;14378;51.796;5.808;2022-10-15T10:48:26;16.70;99.90
26803;DHT22;14378;51.796;5.808;2022-10-15T10:50:34;16.70;99.90
26803;DHT22;14378;51.796;5.808;2022-10-15T10:52:40;16.60;99.90
26803;DHT22;14378;51.796;5.808;2022-10-15T10:54:41;16.70;99.90
26803;DHT22;14378;51.796;5.808;2022-10-15T10:56:43;16.60;99.90
26803;DHT22;14378;51.796;5.808;2022-10-15T10:58:44;16.60;99.90
26803;DHT22;14378;51.796;5.808;2022-10-15T11:00:48;16.60;99.90
26803;DHT22;14378;51.796;5.808;2022-10-15T11:02:51;16.50;99.90
26803;DHT22;14378;51.796;5.808;2022-10-15T11:04:52;16.50;99.90
26803;DHT22;14378;51.796;5.808;2022-10-15T11:07:00;16.50;99.90
26803;DHT22;14378;51.796;5.808;2022-10-15T11:13:53;16.50;99.90
26803;DHT22;14378;51.796;5.808;2022-10-15T11:16:04;16.50;99.90
26803;DHT22;14378;51.796;5.808;2022-10-15T11:27:56;16.50;99.90
26803;DHT22;14378;51.796;5.808;2022-10-15T11:32:19;16.60;99.90
26803;DHT22;14378;51.796;5.808;2022-10-15T11:45:15;16.70;99.90
26803;DHT22;14378;51.796;5.808;2022-10-15T11:54:33;16.70;99.90
26803;DHT22;14378;51.796;5.808;2022-10-15T11:56:42;16.70;99.90
26803;DHT22;14378;51.796;5.808;2022-10-15T11:58:59;16.70;99.90
26803;DHT22;14378;51.796;5.808;2022-10-15T12:03:23;16.70;99.90
26803;DHT22;14378;51.796;5.808;2022-10-15T12:05:34;16.70;99.90
26803;DHT22;14378;51.796;5.808;2022-10-15T12:07:39;16.70;99.90
26803;DHT22;14378;51.796;5.808;2022-10-15T12:09:47;16.70;99.90
26803;DHT22;14378;51.796;5.808;2022-10-15T12:16:29;16.80;99.90
26803;DHT22;14378;51.796;5.808;2022-10-15T12:20:41;16.90;99.90
26803;DHT22;14378;51.796;5.808;2022-10-15T12:26:48;17.00;99.90
26803;DHT22;14378;51.796;5.808;2022-10-15T12:28:54;17.00;99.90
26803;DHT22;14378;51.796;5.808;2022-10-15T12:32:57;17.00;99.90
26803;DHT22;14378;51.796;5.808;2022-10-15T12:35:04;17.00;99.90
26803;DHT22;14378;51.796;5.808;2022-10-15T12:37:16;17.00;99.90
26803;DHT22;14378;51.796;5.808;2022-10-15T12:39:24;17.10;99.90
26803;DHT22;14378;51.796;5.808;2022-10-15T12:41:42;17.10;99.90
26803;DHT22;14378;51.796;5.808;2022-10-15T12:44:02;17.20;99.90
26803;DHT22;14378;51.796;5.808;2022-10-15T12:46:06;17.20;99.90
26803;DHT22;14378;51.796;5.808;2022-10-15T12:50:25;17.30;99.90
26803;DHT22;14378;51.796;5.808;2022-10-15T12:55:32;17.40;99.90
26803;DHT22;14378;51.796;5.808;2022-10-15T13:05:52;17.60;99.90
26803;DHT22;14378;51.796;5.808;2022-10-15T13:08:10;17.60;99.90
26803;DHT22;14378;51.796;5.808;2022-10-15T13:10:20;17.60;99.90
26803;DHT22;14378;51.796;5.808;2022-10-15T13:12:26;17.60;99.90
26803;DHT22;14378;51.796;5.808;2022-10-15T13:14:36;17.60;99.90
26803;DHT22;14378;51.796;5.808;2022-10-15T13:16:44;17.60;99.90
26803;DHT22;14378;51.796;5.808;2022-10-15T13:18:52;17.60;99.90
26803;DHT22;14378;51.796;5.808;2022-10-15T13:20:54;17.60;99.90
26803;DHT22;14378;51.796;5.808;2022-10-15T13:23:26;17.70;99.90
26803;DHT22;14378;51.796;5.808;2022-10-15T13:25:28;17.70;99.90
26803;DHT22;14378;51.796;5.808;2022-10-15T13:27:35;17.80;99.90
26803;DHT22;14378;51.796;5.808;2022-10-15T13:29:38;17.80;99.90
26803;DHT22;14378;51.796;5.808;2022-10-15T13:31:40;17.80;99.90
26803;DHT22;14378;51.796;5.808;2022-10-15T13:33:48;17.90;99.90
26803;DHT22;14378;51.796;5.808;2022-10-15T13:35:50;18.00;99.90
26803;DHT22;14378;51.796;5.808;2022-10-15T13:37:56;18.10;99.90
26803;DHT22;14378;51.796;5.808;2022-10-15T13:39:58;18.20;99.90
26803;DHT22;14378;51.796;5.808;2022-10-15T13:45:03;18.30;99.90
26803;DHT22;14378;51.796;5.808;2022-10-15T13:47:24;18.30;99.90
26803;DHT22;14378;51.796;5.808;2022-10-15T13:49:27;18.30;99.90
26803;DHT22;14378;51.796;5.808;2022-10-15T13:51:34;18.30;99.90
26803;DHT22;14378;51.796;5.808;2022-10-15T13:53:40;18.30;99.90
26803;DHT22;14378;51.796;5.808;2022-10-15T13:55:50;18.30;99.90
26803;DHT22;14378;51.796;5.808;2022-10-15T14:00:35;18.20;99.90
26803;DHT22;14378;51.796;5.808;2022-10-15T14:02:37;18.10;99.90
26803;DHT22;14378;51.796;5.808;2022-10-15T14:04:38;18.00;99.90
26803;DHT22;14378;51.796;5.808;2022-10-15T14:06:40;18.10;99.90
26803;DHT22;14378;51.796;5.808;2022-10-15T14:08:44;17.90;99.90
26803;DHT22;14378;51.796;5.808;2022-10-15T14:10:46;17.90;99.90
26803;DHT22;14378;51.796;5.808;2022-10-15T14:12:47;17.90;99.90
26803;DHT22;14378;51.796;5.808;2022-10-15T14:14:54;17.90;99.90
26803;DHT22;14378;51.796;5.808;2022-10-15T14:16:57;17.80;99.90
26803;DHT22;14378;51.796;5.808;2022-10-15T14:21:17;17.80;99.90
26803;DHT22;14378;51.796;5.808;2022-10-15T14:23:22;17.90;99.90
26803;DHT22;14378;51.796;5.808;2022-10-15T14:25:24;17.90;99.90
26803;DHT22;14378;51.796;5.808;2022-10-15T14:27:27;17.90;99.90
26803;DHT22;14378;51.796;5.808;2022-10-15T14:29:36;18.00;99.90
26803;DHT22;14378;51.796;5.808;2022-10-15T14:31:39;18.00;99.90
26803;DHT22;14378;51.796;5.808;2022-10-15T14:33:42;18.00;99.90
26803;DHT22;14378;51.796;5.808;2022-10-15T14:42:26;17.90;99.90
26803;DHT22;14378;51.796;5.808;2022-10-15T14:45:10;17.80;99.90
26803;DHT22;14378;51.796;5.808;2022-10-15T14:47:25;17.80;99.90
26803;DHT22;14378;51.796;5.808;2022-10-15T14:49:29;17.70;99.90
26803;DHT22;14378;51.796;5.808;2022-10-15T14:51:34;17.70;99.90
26803;DHT22;14378;51.796;5.808;2022-10-15T14:53:38;17.60;99.90
26803;DHT22;14378;51.796;5.808;2022-10-15T14:55:50;17.50;99.90
26803;DHT22;14378;51.796;5.808;2022-10-15T14:57:54;17.50;99.90
26803;DHT22;14378;51.796;5.808;2022-10-15T14:59:56;17.40;99.90
26803;DHT22;14378;51.796;5.808;2022-10-15T15:01:59;17.40;99.90
26803;DHT22;14378;51.796;5.808;2022-10-15T15:04:02;17.40;99.90
26803;DHT22;14378;51.796;5.808;2022-10-15T15:06:03;17.50;99.90
26803;DHT22;14378;51.796;5.808;2022-10-15T15:08:07;17.40;99.90
26803;DHT22;14378;51.796;5.808;2022-10-15T15:10:10;17.40;99.90
26803;DHT22;14378;51.796;5.808;2022-10-15T15:12:20;17.40;99.90
26803;DHT22;14378;51.796;5.808;2022-10-15T15:14:25;17.40;99.90
26803;DHT22;14378;51.796;5.808;2022-10-15T15:16:26;17.40;99.90
26803;DHT22;14378;51.796;5.808;2022-10-15T15:18:27;17.40;99.90
26803;DHT22;14378;51.796;5.808;2022-10-15T15:20:28;17.40;99.90
26803;DHT22;14378;51.796;5.808;2022-10-15T15:22:30;17.30;99.90
26803;DHT22;14378;51.796;5.808;2022-10-15T15:24:31;17.30;99.90
26803;DHT22;14378;51.796;5.808;2022-10-15T15:26:32;17.30;99.90
26803;DHT22;14378;51.796;5.808;2022-10-15T15:28:33;17.30;99.90
26803;DHT22;14378;51.796;5.808;2022-10-15T15:30:40;17.30;99.90
26803;DHT22;14378;51.796;5.808;2022-10-15T15:32:47;17.20;99.90